EDAC/ADC METAR and TAF weather

Enter ICAO airport designator
Station Type Date Time Source
EDAC METAR 2021/10/22 18:20 UTC NOAA

EDAC 221820Z AUTO 26013KT 9999 // OVC033/// 09/04 Q1016


Station Type Date Time Source
EDAC Decoded METAR 2021/10/22 18:20 UTC NOAA

Altenburg Nobitz, Germany (EDAC) 50-58N 012-30E
Oct 22, 2021 - 02:20 PM EDT / 2021.10.22 1820 UTC
Wind: from the W (260 degrees) at 15 MPH (13 KT):0
Visibility: greater than 7 mile(s):0
Sky conditions: overcast
Temperature: 48 F (9 C)
Dew Point: 39 F (4 C)
Relative Humidity: 70%
Pressure (altimeter): 30.00 in. Hg (1016 hPa)
ob: EDAC 221820Z AUTO 26013KT 9999 // OVC033/// 09/04 Q1016
cycle: 18

Station Type Date Time Source
EDAC TAF UTC NOAA

Error!

Example: see airport list